Terminal Aerodrome Forecast
Issued by NWS

Home | Current Version | Previous Version | Text Only | Print | Product List | Glossary On
Versions: 1 2 3 4 5 6 7 8 9 10 11 12 13 14 15 16
000
FTUS44 KJAN 290530
TAFGTR
TAF
KGTR 290530Z 2906/3006 21003KT P6SM SKC
     FM291100 20005KT 6SM BR BKN015
     FM291500 25006KT P6SM VCTS BKN035CB
     FM300000 22003KT P6SM SCT040=

USA.gov is the U.S. government's official web portal to all federal, state and local government web resources and services.